Terminal Aerodrome Forecast
Issued by NWS

Home | Current Version | Previous Version | Text Only | Print | Product List | Glossary On
Versions: 1 2 3 4 5 6 7 8 9 10 11 12 13 14 15 16 17 18 19
474
FTUS46 KMFR 100538
TAFRBG
TAF
KRBG 100538Z 1006/1106 00000KT P6SM BKN200
     FM100900 00000KT 4SM BR OVC002
     FM101800 18002KT P6SM OVC060
     FM102300 35003KT P6SM SCT100 BKN200=

USA.gov is the U.S. government's official web portal to all federal, state and local government web resources and services.